• Join FlightAware (Why Join?)
  • Login
  • US Flag 
03:12AM EST


 

Airport Tracker/Info


-or-


 

Live Flight TrackerFlight Track Log ✈ TAM3736 ✈ 15-Sep-2013 ✈ SBSP / CGH - SBSR / SJP

Flight Track Log - Related Links

Times and Time Zones

All times are in EDT time to prevent confusion due to time zone crossing. See the TAM3736 flight status page for this flight to view local times or setup timezone preferences in your user account.

Time Position Orientation Groundspeed Altitude Reporting Facility
EDT Latitude Longitude Course Direction KTS MPH feet Rate Location/Type
09:18PM -22.4807 -47.7962 317° Northwest  Level Estimated
09:19PM -22.4089 -47.8668 318° Northwest  Level Estimated
09:20PM -22.3369 -47.9374 318° Northwest  Level Estimated
09:21PM -22.2650 -48.0079 318° Northwest  Level Estimated
09:22PM -22.1930 -48.0784 318° Northwest  Level Estimated
09:23PM -22.1210 -48.1488 318° Northwest  Level Estimated
09:24PM -22.0490 -48.2191 318° Northwest  Level Estimated
09:25PM -21.9769 -48.2893 318° Northwest  Level Estimated
09:26PM -21.9048 -48.3594 318° Northwest  Level Estimated
09:27PM -21.8327 -48.4295 318° Northwest  Level Estimated
09:28PM -21.7605 -48.4995 318° Northwest  Level Estimated
09:29PM -21.6883 -48.5695 318° Northwest  Level Estimated
09:30PM -21.6161 -48.6394 318° Northwest  Level Estimated
09:31PM -21.5438 -48.7092 318° Northwest  Level Estimated
09:32PM -21.4716 -48.7789 318° Northwest  Level Estimated
09:33PM -21.3993 -48.8486 318° Northwest  Level Estimated
09:34PM -21.3269 -48.9182 318° Northwest  Level Estimated
09:35PM -21.2546 -48.9877 318° Northwest  Level Estimated
09:36PM -21.1822 -49.0572 318° Northwest  Level Estimated
09:37PM -21.1097 -49.1266 318° Northwest  Level Estimated
09:38PM -21.0373 -49.1959 318° Northwest  Level Estimated
09:39PM -20.9648 -49.2651 318° Northwest  Level Estimated
09:40PM -20.8923 -49.3343 318° Northwest  Level Estimated
09:41PM -20.8198 -49.4035 318° Northwest  Level Estimated
09:42PM -20.8166 -49.4065 318° Northwest  Level Estimated
09:43PM -20.8166 -49.4065 343° North  Level Estimated
09:44PM -20.8166 -49.4065 343° North  Level Estimated
09:45PM -20.8166 -49.4065 343° North  Level Estimated
09:46PM -20.8166 -49.4065 343° North  Level Estimated
09:47PM -20.8166 -49.4065 343° North  Level Estimated
09:48PM -20.8166 -49.4065 343° North  Level Estimated
09:49PM -20.8166 -49.4065 343° North  Level Estimated
09:50PM -20.8166 -49.4065 343° North  Level Estimated
09:51PM -20.8166 -49.4065 343° North  Level Estimated
09:52PM -20.8166 -49.4065 343° North  Level Estimated
09:53PM -20.8166 -49.4065 343° North  Level Estimated
09:54PM -20.8166 -49.4065 343° North  Level Estimated
09:55PM -20.8166 -49.4065 343° North  Level Estimated
09:56PM -20.8166 -49.4065 343° North  Level Estimated
09:57PM -20.8166 -49.4065 343° North  Level Estimated